Latest Weather Observations for Portland Airport

IDV60801

Issued at 7:31 am EDT Monday 30 March 2015 (issued every 30 minutes, with the page automatically refreshed every 10 minutes)

About weather observations | Map of weather stations | Latest weather observations for VIC | Other Formats
Station Details ID: 090171 Name: CASHMORE AIRPORT Lat: -38.31 Lon: 141.47 Height: 80.9 m
Data from the previous 72 hours. | See also: Recent months at Portland Airport
Date/Time
EDT
Temp
°C
App
Temp
°C
Dew
Point
Rel
Hum
%
Delta-T
°C
Wind Press
QNH
hPa
Press
MSL
hPa
Rain
since 9 am
mm
Dir
 
Spd
km/h
Gust
km/h
Spd
kts
Gust
kts
30/07:30am 13.1 12.3 12.9 99 0.1 N 9 13 5 7 1023.6 1023.5 0.2
30/07:22am 13.3 12.6 13.1 99 0.1 N 9 13 5 7 1023.4 1023.3 0.2
30/07:00am 13.4 12.7 13.2 99 0.1 NNW 9 13 5 7 1023.3 1023.2 0.2
30/06:55am 13.4 12.7 13.2 99 0.1 NNW 9 13 5 7 1023.2 1023.1 0.2
30/06:30am 13.4 12.7 13.2 99 0.1 N 9 13 5 7 1023.0 1022.9 0.2
30/06:13am 13.6 13.0 13.4 99 0.1 N 9 11 5 6 1022.9 1022.8 0.2
30/06:00am 13.5 12.8 13.3 99 0.1 N 9 11 5 6 1022.9 1022.8 0.2
30/05:30am 13.7 13.5 13.5 99 0.1 NW 7 9 4 5 1022.8 1022.7 0.2
30/05:14am 13.8 13.6 13.6 99 0.1 WNW 7 9 4 5 1022.7 1022.6 0.2
30/05:13am 13.8 13.6 13.6 99 0.1 WNW 7 9 4 5 1022.8 1022.7 0.2
30/05:00am 13.9 13.4 13.7 99 0.1 WNW 9 13 5 7 1022.8 1022.7 0.2
30/04:30am 13.9 13.0 13.7 99 0.1 WNW 11 17 6 9 1022.8 1022.7 0.2
30/04:09am 13.2 12.0 12.9 98 0.2 NW 11 13 6 7 1022.7 1022.6 0.2
30/04:00am 13.6 12.6 13.3 98 0.2 NW 11 15 6 8 1022.7 1022.6 0.2
30/03:30am 13.1 11.9 12.8 98 0.2 WNW 11 13 6 7 1022.8 1022.7 0.2
30/03:00am 14.0 13.5 13.7 98 0.2 WNW 9 11 5 6 1022.8 1022.7 0.2
30/02:30am 13.9 13.0 13.7 99 0.1 W 11 15 6 8 1023.0 1022.9 0.2
30/02:00am 14.0 13.1 13.8 99 0.1 WNW 11 15 6 8 1023.1 1023.0 0.2
30/01:50am 14.0 12.7 13.8 99 0.1 WNW 13 17 7 9 1023.1 1023.0 0.2
30/01:30am 14.0 12.7 13.8 99 0.1 WNW 13 17 7 9 1023.1 1023.0 0.2
30/01:05am 12.9 12.0 12.6 98 0.2 NW 9 11 5 6 1023.0 1022.9 0.2
30/01:00am 12.7 12.1 12.4 98 0.2 NW 7 11 4 6 1023.0 1022.9 0.2
30/12:41am 13.0 12.1 12.7 98 0.2 NW 9 11 5 6 1023.0 1022.9 0.2
30/12:30am 13.5 12.4 13.2 98 0.2 NW 11 11 6 6 1023.0 1022.9 0.2
30/12:29am 13.5 12.4 13.2 98 0.2 NW 11 11 6 6 1023.0 1022.9 0.2
30/12:00am 13.9 13.3 13.6 98 0.2 WNW 9 11 5 6 1023.1 1023.0 0.2
 
Date/Time
EDT
Temp
°C
App
Temp
°C
Dew
Point
Rel
Hum
%
Delta-T
°C
Wind Press
QNH
hPa
Press
MSL
hPa
Rain
since 9 am
mm
Dir
 
Spd
km/h
Gust
km/h
Spd
kts
Gust
kts
29/11:30pm 13.6 12.9 13.1 97 0.3 WNW 9 11 5 6 1023.3 1023.2 0.2
29/11:00pm 13.4 12.6 12.9 97 0.3 WNW 9 13 5 7 1023.4 1023.3 0.0
29/10:30pm 13.8 12.8 13.3 97 0.3 W 11 13 6 7 1023.4 1023.3 0.0
29/10:00pm 14.2 13.3 13.6 96 0.3 WNW 11 13 6 7 1023.3 1023.2 0.0
29/09:55pm 14.3 13.4 13.7 96 0.3 WNW 11 15 6 8 1023.3 1023.2 0.0
29/09:30pm 14.4 13.5 13.8 96 0.3 W 11 13 6 7 1023.3 1023.2 0.0
29/09:00pm 14.5 12.8 13.7 95 0.4 W 15 15 8 8 1023.0 1022.9 0.0
29/08:30pm 14.7 13.0 13.6 93 0.6 WSW 15 19 8 10 1022.7 1022.6 0.0
29/08:00pm 14.9 13.1 13.4 91 0.8 WSW 15 19 8 10 1022.6 1022.5 0.0
29/07:30pm 15.6 13.1 13.4 87 1.2 WSW 19 22 10 12 1022.4 1022.3 0.0
29/07:00pm 16.5 13.8 13.0 80 1.9 WSW 19 24 10 13 1022.2 1022.1 0.0
29/06:30pm 17.2 14.0 13.1 77 2.3 WSW 22 30 12 16 1021.9 1021.8 0.0
29/06:00pm 17.9 14.1 12.4 70 3.1 W 24 32 13 17 1021.7 1021.6 0.0
29/05:30pm 18.1 15.0 12.1 68 3.3 W 20 26 11 14 1021.7 1021.6 0.0
29/05:00pm 18.7 15.5 12.0 65 3.7 WSW 20 30 11 16 1021.5 1021.4 0.0
29/04:30pm 19.1 16.0 12.1 64 3.9 W 20 28 11 15 1021.4 1021.3 0.0
29/04:00pm 19.6 16.6 12.4 63 4.0 W 20 28 11 15 1021.4 1021.3 0.0
29/03:30pm 20.0 16.2 11.2 57 4.8 W 22 28 12 15 1021.5 1021.4 0.0
29/03:00pm 19.1 15.1 11.9 63 4.0 W 24 32 13 17 1021.6 1021.5 0.0
29/02:30pm 19.6 16.2 12.4 63 4.0 W 22 30 12 16 1021.7 1021.6 0.0
29/02:00pm 19.0 14.7 10.8 59 4.4 WNW 24 32 13 17 1022.0 1021.9 0.0
29/01:30pm 18.6 14.2 11.7 64 3.8 W 26 32 14 17 1022.1 1022.0 0.0
29/01:00pm 18.3 14.8 12.1 67 3.4 WNW 22 32 12 17 1022.3 1022.2 0.0
29/12:30pm 18.1 14.3 11.2 64 3.8 WNW 22 32 12 17 1022.3 1022.2 0.0
29/12:00pm 18.1 14.2 12.1 68 3.3 WNW 24 32 13 17 1022.4 1022.3 0.0
29/11:30am 17.8 14.1 11.6 67 3.4 WNW 22 30 12 16 1022.5 1022.4 0.0
29/11:00am 17.3 14.0 11.6 69 3.1 WNW 20 32 11 17 1022.6 1022.5 0.0
29/10:30am 16.5 13.7 11.4 72 2.8 NW 17 26 9 14 1022.6 1022.5 0.0
29/10:00am 15.5 13.1 11.5 77 2.2 NNW 15 19 8 10 1022.6 1022.5 0.0
29/09:30am 14.2 12.1 11.0 81 1.7 NNW 13 17 7 9 1022.3 1022.2 0.0
29/09:00am 13.0 11.3 11.1 88 1.0 NNW 11 13 6 7 1022.2 1022.1 0.2
29/08:30am 9.6 7.2 8.5 93 0.5 N 11 13 6 7 1021.9 1021.8 0.2
29/08:00am 8.6 6.0 7.8 95 0.4 NNW 11 13 6 7 1021.7 1021.6 0.2
29/07:30am 8.3 5.6 7.4 94 0.4 N 11 13 6 7 1021.4 1021.3 0.2
29/07:00am 9.7 7.3 8.6 93 0.5 N 11 15 6 8 1021.2 1021.1 0.2
29/06:30am 10.3 7.6 9.1 92 0.6 N 13 15 7 8 1021.0 1020.9 0.2
29/06:00am 9.9 7.2 9.0 94 0.4 N 13 15 7 8 1021.1 1021.0 0.2
29/05:30am 8.9 6.4 8.1 95 0.4 NNW 11 13 6 7 1020.9 1020.8 0.2
29/05:00am 8.8 6.7 8.2 96 0.3 NNW 9 9 5 5 1020.7 1020.6 0.2
29/04:30am 7.2 5.1 6.5 95 0.3 NNW 7 9 4 5 1020.7 1020.6 0.2
29/04:00am 8.5 5.9 7.7 95 0.4 NNW 11 13 6 7 1020.6 1020.5 0.2
29/03:30am 8.7 6.1 7.9 95 0.4 NNW 11 13 6 7 1020.8 1020.7 0.2
29/03:00am 8.7 6.1 7.9 95 0.4 NNW 11 13 6 7 1021.0 1020.9 0.2
29/02:30am 8.7 6.1 7.9 95 0.4 NNW 11 13 6 7 1021.0 1020.9 0.2
29/02:00am 8.6 5.6 7.8 95 0.4 N 13 13 7 7 1021.0 1020.9 0.2
29/01:30am 9.0 6.5 8.2 95 0.4 N 11 13 6 7 1021.1 1021.0 0.2
29/01:00am 9.0 6.5 8.2 95 0.4 N 11 13 6 7 1021.2 1021.1 0.0
29/12:30am 8.8 6.3 8.0 95 0.4 N 11 13 6 7 1021.5 1021.4 0.0
29/12:00am 8.7 5.7 7.8 94 0.4 N 13 13 7 7 1021.8 1021.7 0.0
 
Date/Time
EDT
Temp
°C
App
Temp
°C
Dew
Point
Rel
Hum
%
Delta-T
°C
Wind Press
QNH
hPa
Press
MSL
hPa
Rain
since 9 am
mm
Dir
 
Spd
km/h
Gust
km/h
Spd
kts
Gust
kts
28/11:30pm 9.2 6.7 8.1 93 0.5 N 11 13 6 7 1022.0 1021.9 0.0
28/11:00pm 9.0 7.4 7.8 92 0.6 WNW 6 7 3 4 1022.1 1022.0 0.0
28/10:30pm 9.4 7.8 8.0 91 0.7 WNW 6 9 3 5 1022.4 1022.3 0.0
28/10:00pm 9.5 7.9 8.1 91 0.7 WNW 6 7 3 4 1022.6 1022.5 0.0
28/09:30pm 9.7 9.3 8.1 90 0.8 CALM 0 0 0 0 1022.5 1022.4 0.0
28/09:00pm 10.1 8.5 8.0 87 1.0 W 6 7 3 4 1022.3 1022.2 0.0
28/08:30pm 10.7 9.0 8.3 85 1.2 W 7 7 4 4 1022.3 1022.2 0.0
28/08:00pm 11.3 9.2 8.3 82 1.5 W 9 11 5 6 1022.2 1022.1 0.0
28/07:30pm 13.1 11.1 8.8 75 2.2 W 9 13 5 7 1022.2 1022.1 0.0
28/07:00pm 14.7 12.1 9.5 71 2.7 W 13 17 7 9 1022.1 1022.0 0.0
28/06:30pm 15.7 12.1 9.8 68 3.1 W 19 22 10 12 1022.0 1021.9 0.0
28/06:00pm 15.7 12.4 9.6 67 3.2 W 17 22 9 12 1022.0 1021.9 0.0
28/05:30pm 16.5 13.7 10.1 66 3.4 W 15 20 8 11 1022.1 1022.0 0.0
28/05:00pm 16.5 13.1 9.0 61 3.9 W 17 22 9 12 1022.4 1022.3 0.0
28/04:30pm 16.2 13.3 9.6 65 3.4 W 15 20 8 11 1022.7 1022.6 0.0
28/04:00pm 15.9 12.9 9.3 65 3.4 W 15 22 8 12 1023.1 1023.0 0.0
28/03:30pm 15.7 12.4 9.6 67 3.2 W 17 22 9 12 1023.4 1023.3 0.0
28/03:00pm 15.6 12.7 9.7 68 3.1 WNW 15 20 8 11 1023.5 1023.4 0.0
28/02:30pm 15.4 12.0 9.1 66 3.2 W 17 24 9 13 1023.9 1023.8 0.0
28/02:00pm 15.4 11.9 8.6 64 3.4 WNW 17 24 9 13 1024.2 1024.1 0.0
28/01:30pm 15.1 11.7 9.0 67 3.1 WNW 17 22 9 12 1024.5 1024.4 0.0
28/01:00pm 14.9 11.5 9.3 69 2.9 WNW 17 22 9 12 1024.9 1024.8 0.0
28/12:30pm 15.1 11.7 9.2 68 3.0 NW 17 22 9 12 1025.2 1025.0 0.0
28/12:00pm 15.3 12.9 11.3 77 2.1 NW 15 22 8 12 1025.4 1025.2 0.0
28/11:30am 14.6 11.8 11.2 80 1.8 NNW 17 24 9 13 1025.9 1025.7 0.0
28/11:00am 13.5 11.5 11.4 87 1.1 NNW 13 19 7 10 1026.0 1025.9 0.0
28/10:30am 13.1 11.6 12.0 93 0.6 N 11 15 6 8 1025.9 1025.7 0.0
28/10:00am 12.6 11.5 12.1 97 0.3 NNW 9 11 5 6 1026.2 1026.1 0.0
28/09:30am 12.0 10.8 11.7 98 0.2 WNW 9 11 5 6 1026.5 1026.4 0.0
28/09:09am 11.4 10.1 11.1 98 0.2 WNW 9 11 5 6 1026.3 1026.2 0.0
28/09:00am 11.5 9.8 11.2 98 0.2 WNW 11 15 6 8 1026.2 1026.1 4.8
28/08:53am 11.4 9.3 11.1 98 0.2 NW 13 17 7 9 1026.2 1026.1 4.8
28/08:30am 11.1 8.5 10.8 98 0.2 NW 15 19 8 10 1026.1 1026.0 4.8
28/08:00am 11.1 9.3 10.8 98 0.2 NW 11 17 6 9 1025.7 1025.5 4.2
28/07:38am 11.1 9.7 10.8 98 0.2 NW 9 15 5 8 1025.6 1025.4 3.8
28/07:34am 11.1 9.7 10.8 98 0.2 NW 9 13 5 7 1025.6 1025.4 3.8
28/07:30am 11.1 9.7 10.8 98 0.2 NW 9 13 5 7 1025.5 1025.3 3.8
28/07:08am 11.0 9.5 10.7 98 0.2 NNW 9 15 5 8 1025.3 1025.1 3.6
28/07:07am 10.9 9.4 10.6 98 0.2 NNW 9 15 5 8 1025.3 1025.1 3.6
28/07:00am 10.8 9.3 10.5 98 0.2 N 9 13 5 7 1025.3 1025.1 3.6
28/06:30am 10.7 9.5 10.4 98 0.2 NNW 7 9 4 5 1024.8 1024.7 3.6
28/06:07am 11.0 10.1 10.7 98 0.2 NNW 6 9 3 5 1024.7 1024.6 3.6
28/06:00am 11.0 9.9 10.7 98 0.2 NNW 7 9 4 5 1024.7 1024.6 3.6
28/05:30am 11.0 9.9 10.7 98 0.2 NNW 7 9 4 5 1024.9 1024.8 3.4
28/05:00am 11.0 9.5 10.7 98 0.2 NW 9 13 5 7 1025.0 1024.9 3.0
28/04:30am 10.7 9.5 10.4 98 0.2 NNW 7 11 4 6 1025.2 1025.0 2.2
28/04:25am 10.7 9.5 10.4 98 0.2 NNW 7 9 4 5 1025.2 1025.0 2.0
28/04:15am 10.6 9.3 10.1 97 0.3 NNW 7 9 4 5 1025.3 1025.1 2.0
28/04:00am 10.7 9.5 10.2 97 0.3 NNW 7 9 4 5 1025.2 1025.0 1.8
28/03:30am 11.2 10.3 10.7 97 0.3 NNW 6 7 3 4 1025.4 1025.2 1.8
28/03:15am 11.4 11.7 10.9 97 0.3 CALM 0 0 0 0 1025.5 1025.3 1.8
28/03:09am 11.4 11.7 10.9 97 0.3 CALM 0 0 0 0 1025.6 1025.4 1.8
28/03:00am 11.4 11.7 10.9 97 0.3 CALM 0 0 0 0 1025.6 1025.4 1.8
28/02:36am 11.5 10.7 11.0 97 0.3 NNW 6 7 3 4 1025.8 1025.6 1.4
28/02:30am 11.4 10.6 10.9 97 0.3 NNW 6 9 3 5 1025.8 1025.6 1.4
28/02:29am 11.4 10.4 10.9 97 0.3 NNW 7 9 4 5 1025.9 1025.7 1.4
28/02:11am 11.4 10.4 10.9 97 0.3 N 7 11 4 6 1026.0 1025.9 1.2
28/02:00am 11.5 10.5 11.0 97 0.3 NNW 7 13 4 7 1026.1 1026.0 1.2
28/01:43am 11.5 10.5 11.0 97 0.3 NNW 7 11 4 6 1026.2 1026.1 1.2
28/01:30am 11.3 9.9 10.8 97 0.3 N 9 11 5 6 1026.1 1026.0 1.2
28/01:00am 11.3 10.2 10.7 96 0.3 SW 7 7 4 4 1026.1 1026.0 1.2
28/12:30am 11.4 11.6 10.6 95 0.4 CALM 0 0 0 0 1026.3 1026.2 1.2
28/12:22am 11.6 11.9 10.8 95 0.4 CALM 0 0 0 0 1026.3 1026.2 1.2
28/12:00am 11.6 11.9 11.0 96 0.3 CALM 0 0 0 0 1026.4 1026.3 1.2
 
Date/Time
EDT
Temp
°C
App
Temp
°C
Dew
Point
Rel
Hum
%
Delta-T
°C
Wind Press
QNH
hPa
Press
MSL
hPa
Rain
since 9 am
mm
Dir
 
Spd
km/h
Gust
km/h
Spd
kts
Gust
kts
27/11:54pm 11.6 11.9 10.8 95 0.4 CALM 0 0 0 0 1026.4 1026.3 1.2
27/11:36pm 11.3 11.1 10.5 95 0.4 SW 2 7 1 4 1026.5 1026.4 1.2
27/11:30pm 10.9 10.6 10.1 95 0.4 WSW 2 6 1 3 1026.6 1026.5 1.2
27/11:29pm 10.9 10.6 10.1 95 0.4 WSW 2 6 1 3 1026.6 1026.5 1.2
27/11:00pm 10.7 10.7 9.8 94 0.5 CALM 0 0 0 0 1026.5 1026.4 1.0
27/10:30pm 11.7 11.6 10.8 94 0.5 WSW 2 7 1 4 1026.6 1026.5 1.0
27/10:05pm 12.1 10.7 11.0 93 0.6 WSW 9 11 5 6 1026.8 1026.7 1.0
27/10:00pm 12.2 10.9 11.1 93 0.6 WSW 9 13 5 7 1026.8 1026.7 1.0
27/09:47pm 12.3 10.9 11.0 92 0.7 SW 9 13 5 7 1026.9 1026.8 1.0
27/09:39pm 12.4 11.0 11.0 91 0.7 SW 9 11 5 6 1026.8 1026.7 1.0
27/09:30pm 12.5 11.7 10.9 90 0.8 SSE 6 11 3 6 1026.8 1026.7 1.0
27/09:20pm 12.7 13.0 10.8 88 1.0 CALM 0 0 0 0 1026.8 1026.7 1.0
27/09:16pm 12.8 13.1 10.9 88 1.0 CALM 0 0 0 0 1026.7 1026.6 1.0
27/09:06pm 12.8 13.0 10.5 86 1.2 CALM 0 0 0 0 1026.7 1026.6 1.0
27/09:00pm 12.8 13.0 10.5 86 1.2 CALM 0 0 0 0 1026.7 1026.6 1.0
27/08:30pm 13.2 12.0 10.4 83 1.5 S 7 11 4 6 1026.5 1026.4 1.0
27/08:00pm 13.1 12.4 9.9 81 1.6 SW 4 6 2 3 1026.2 1026.1 1.0
27/07:30pm 13.4 12.0 9.5 77 2.0 SSW 7 11 4 6 1026.0 1025.9 1.0
27/07:00pm 13.6 11.4 9.5 76 2.1 SSW 11 17 6 9 1025.9 1025.7 1.0
27/06:30pm 14.0 12.3 10.0 77 2.1 S 9 15 5 8 1025.8 1025.6 1.0
27/06:00pm 14.5 11.8 9.1 70 2.7 SW 13 19 7 10 1025.6 1025.4 1.0
27/05:30pm 14.3 11.2 8.9 70 2.7 SW 15 22 8 12 1025.5 1025.3 1.0
27/05:00pm 14.6 12.0 9.2 70 2.8 SSW 13 22 7 12 1025.5 1025.3 1.0
27/04:30pm 14.5 11.0 8.9 69 2.9 SSW 17 24 9 13 1025.6 1025.4 1.0
27/04:00pm 15.2 12.0 10.0 71 2.7 SW 17 28 9 15 1025.6 1025.4 1.0
27/03:30pm 14.1 10.9 10.1 77 2.1 SSW 17 30 9 16 1025.7 1025.5 1.0
27/03:00pm 15.4 12.8 10.6 73 2.5 SSW 15 28 8 15 1025.7 1025.5 1.0
27/02:30pm 14.0 11.1 11.0 82 1.6 S 17 26 9 14 1025.9 1025.7 1.0
27/02:00pm 14.6 12.2 11.4 81 1.7 SW 15 22 8 12 1026.1 1026.0 1.0
27/01:37pm 13.7 11.4 11.6 87 1.1 SSW 15 22 8 12 1026.3 1026.2 1.0
27/01:30pm 13.7 11.5 12.1 90 0.9 SSW 15 26 8 14 1026.3 1026.2 1.0
27/01:23pm 13.7 11.2 12.3 91 0.8 SSW 17 26 9 14 1026.4 1026.3 1.0
27/01:19pm 13.3 11.0 11.9 91 0.8 SSW 15 22 8 12 1026.5 1026.4 1.0
27/01:02pm 13.2 9.3 10.7 85 1.3 SW 22 33 12 18 1026.7 1026.6 1.0
27/01:00pm 13.5 9.1 10.3 81 1.7 WSW 24 33 13 18 1026.7 1026.6 0.6
27/12:30pm 14.8 9.9 10.0 73 2.5 W 26 32 14 17 1026.5 1026.4 0.0
27/12:00pm 14.8 10.8 10.4 75 2.3 WSW 22 28 12 15 1026.5 1026.4 0.0
27/11:30am 14.6 11.4 10.0 74 2.4 SW 17 24 9 13 1026.5 1026.4 0.0
27/11:00am 13.1 9.8 9.4 78 1.9 SW 17 24 9 13 1026.5 1026.4 0.0
27/10:30am 13.8 10.6 8.6 71 2.6 SSW 15 30 8 16 1026.4 1026.3 0.0
27/10:00am 13.2 9.9 7.9 70 2.6 SW 15 26 8 14 1026.2 1026.1 0.0
27/09:30am 12.9 9.2 7.8 71 2.5 SSW 17 26 9 14 1026.0 1025.9 0.0
27/09:00am 12.1 8.3 7.6 74 2.2 SW 17 24 9 13 1025.8 1025.6 15.0
27/08:30am 11.6 7.5 8.5 81 1.5 SW 20 32 11 17 1025.5 1025.3 15.0
27/08:00am 11.4 8.6 10.1 92 0.7 SW 15 20 8 11 1025.2 1025.0 15.0
27/07:47am 11.1 8.3 10.0 93 0.6 SW 15 26 8 14 1025.0 1024.9 15.0
27/07:35am 11.2 8.1 10.3 94 0.5 SW 17 26 9 14 1024.9 1024.8 15.0
27/07:34am 11.3 8.6 10.4 94 0.5 SW 15 22 8 12 1024.9 1024.8 15.0

Other Formats:

Comma delimited format used in spreadsheet applications
http://www.bom.gov.au/fwo/IDV60801/IDV60801.94828.axf

JavaScript Object Notation format (JSON) in row-major order
http://www.bom.gov.au/fwo/IDV60801/IDV60801.94828.json